sensor_id;sensor_type;location;lat;lon;timestamp;P1;durP1;ratioP1;P2;durP2;ratioP2
75766;SDS011;64378;55.596;13.014;2023-01-10T00:02:11;9.87;;;2.50;;
75766;SDS011;64378;55.596;13.014;2023-01-10T00:04:36;9.10;;;2.63;;
75766;SDS011;64378;55.596;13.014;2023-01-10T00:07:02;8.43;;;2.43;;
75766;SDS011;64378;55.596;13.014;2023-01-10T00:09:27;7.60;;;2.27;;
75766;SDS011;64378;55.596;13.014;2023-01-10T00:11:52;11.60;;;2.60;;
75766;SDS011;64378;55.596;13.014;2023-01-10T00:14:36;9.75;;;2.25;;
75766;SDS011;64378;55.596;13.014;2023-01-10T00:17:02;9.93;;;2.30;;
75766;SDS011;64378;55.596;13.014;2023-01-10T00:19:28;10.77;;;2.35;;
75766;SDS011;64378;55.596;13.014;2023-01-10T00:21:53;9.23;;;2.30;;
75766;SDS011;64378;55.596;13.014;2023-01-10T00:24:21;10.00;;;2.28;;
75766;SDS011;64378;55.596;13.014;2023-01-10T00:26:48;8.32;;;2.10;;
75766;SDS011;64378;55.596;13.014;2023-01-10T00:29:18;8.60;;;2.10;;
75766;SDS011;64378;55.596;13.014;2023-01-10T00:31:46;10.43;;;2.55;;
75766;SDS011;64378;55.596;13.014;2023-01-10T00:34:11;9.70;;;2.28;;
75766;SDS011;64378;55.596;13.014;2023-01-10T00:36:37;8.60;;;2.03;;
75766;SDS011;64378;55.596;13.014;2023-01-10T00:39:03;9.43;;;2.28;;
75766;SDS011;64378;55.596;13.014;2023-01-10T00:41:28;8.13;;;2.17;;
75766;SDS011;64378;55.596;13.014;2023-01-10T00:44:12;8.87;;;2.17;;
75766;SDS011;64378;55.596;13.014;2023-01-10T00:46:37;7.75;;;2.10;;
75766;SDS011;64378;55.596;13.014;2023-01-10T00:49:03;9.65;;;2.15;;
75766;SDS011;64378;55.596;13.014;2023-01-10T00:51:37;8.65;;;2.10;;
75766;SDS011;64378;55.596;13.014;2023-01-10T00:54:03;8.77;;;2.00;;
75766;SDS011;64378;55.596;13.014;2023-01-10T00:56:28;9.30;;;2.20;;
75766;SDS011;64378;55.596;13.014;2023-01-10T00:58:54;10.37;;;2.03;;
75766;SDS011;64378;55.596;13.014;2023-01-10T01:01:19;9.10;;;2.33;;
75766;SDS011;64378;55.596;13.014;2023-01-10T01:03:45;10.35;;;2.30;;
75766;SDS011;64378;55.596;13.014;2023-01-10T01:06:10;9.70;;;2.38;;
75766;SDS011;64378;55.596;13.014;2023-01-10T01:08:35;7.50;;;2.20;;
75766;SDS011;64378;55.596;13.014;2023-01-10T01:11:01;9.00;;;2.30;;
75766;SDS011;64378;55.596;13.014;2023-01-10T01:13:26;7.50;;;2.33;;
75766;SDS011;64378;55.596;13.014;2023-01-10T01:15:52;8.70;;;2.50;;
75766;SDS011;64378;55.596;13.014;2023-01-10T01:18:18;8.60;;;2.20;;
75766;SDS011;64378;55.596;13.014;2023-01-10T01:20:45;7.97;;;2.30;;
75766;SDS011;64378;55.596;13.014;2023-01-10T01:23:12;7.65;;;2.10;;
75766;SDS011;64378;55.596;13.014;2023-01-10T01:25:39;7.67;;;2.40;;
75766;SDS011;64378;55.596;13.014;2023-01-10T01:28:04;8.43;;;2.38;;
75766;SDS011;64378;55.596;13.014;2023-01-10T01:30:30;8.40;;;2.50;;
75766;SDS011;64378;55.596;13.014;2023-01-10T01:32:55;7.40;;;2.20;;
75766;SDS011;64378;55.596;13.014;2023-01-10T01:35:21;7.03;;;2.17;;
75766;SDS011;64378;55.596;13.014;2023-01-10T01:37:46;6.97;;;2.13;;
75766;SDS011;64378;55.596;13.014;2023-01-10T01:40:13;8.13;;;2.20;;
75766;SDS011;64378;55.596;13.014;2023-01-10T01:42:40;9.88;;;2.35;;
75766;SDS011;64378;55.596;13.014;2023-01-10T01:47:41;7.97;;;2.13;;
75766;SDS011;64378;55.596;13.014;2023-01-10T01:50:31;7.70;;;2.15;;
75766;SDS011;64378;55.596;13.014;2023-01-10T01:53:01;7.78;;;2.42;;
75766;SDS011;64378;55.596;13.014;2023-01-10T01:55:33;8.38;;;2.40;;
75766;SDS011;64378;55.596;13.014;2023-01-10T01:58:02;7.15;;;1.92;;
75766;SDS011;64378;55.596;13.014;2023-01-10T02:00:32;7.57;;;2.08;;
75766;SDS011;64378;55.596;13.014;2023-01-10T02:02:59;7.47;;;2.00;;
75766;SDS011;64378;55.596;13.014;2023-01-10T02:05:26;7.50;;;2.08;;
75766;SDS011;64378;55.596;13.014;2023-01-10T02:07:53;7.05;;;2.13;;
75766;SDS011;64378;55.596;13.014;2023-01-10T02:12:47;6.90;;;2.10;;
75766;SDS011;64378;55.596;13.014;2023-01-10T02:15:16;6.25;;;2.20;;
75766;SDS011;64378;55.596;13.014;2023-01-10T02:17:42;7.78;;;2.13;;
75766;SDS011;64378;55.596;13.014;2023-01-10T02:20:11;6.45;;;2.15;;
75766;SDS011;64378;55.596;13.014;2023-01-10T02:41:42;7.25;;;1.98;;
75766;SDS011;64378;55.596;13.014;2023-01-10T02:44:17;8.13;;;2.30;;
75766;SDS011;64378;55.596;13.014;2023-01-10T02:46:48;7.60;;;2.30;;
75766;SDS011;64378;55.596;13.014;2023-01-10T02:49:13;8.15;;;2.33;;
75766;SDS011;64378;55.596;13.014;2023-01-10T02:51:39;7.00;;;2.30;;
75766;SDS011;64378;55.596;13.014;2023-01-10T03:02:03;6.88;;;2.40;;
75766;SDS011;64378;55.596;13.014;2023-01-10T03:04:46;8.73;;;2.67;;
75766;SDS011;64378;55.596;13.014;2023-01-10T03:10:22;8.75;;;2.88;;
75766;SDS011;64378;55.596;13.014;2023-01-10T03:12:57;7.38;;;2.88;;
75766;SDS011;64378;55.596;13.014;2023-01-10T03:15:26;8.67;;;2.90;;
75766;SDS011;64378;55.596;13.014;2023-01-10T03:17:56;8.05;;;2.70;;
75766;SDS011;64378;55.596;13.014;2023-01-10T03:20:25;9.03;;;2.93;;
75766;SDS011;64378;55.596;13.014;2023-01-10T03:22:52;7.78;;;2.75;;
75766;SDS011;64378;55.596;13.014;2023-01-10T03:25:20;9.73;;;3.07;;
75766;SDS011;64378;55.596;13.014;2023-01-10T03:27:54;8.57;;;3.05;;
75766;SDS011;64378;55.596;13.014;2023-01-10T03:30:30;8.80;;;3.22;;
75766;SDS011;64378;55.596;13.014;2023-01-10T03:33:20;8.48;;;2.92;;
75766;SDS011;64378;55.596;13.014;2023-01-10T03:36:00;7.97;;;2.67;;
75766;SDS011;64378;55.596;13.014;2023-01-10T03:41:34;10.05;;;3.25;;
75766;SDS011;64378;55.596;13.014;2023-01-10T03:49:43;10.53;;;3.00;;
75766;SDS011;64378;55.596;13.014;2023-01-10T03:52:13;9.68;;;3.47;;
75766;SDS011;64378;55.596;13.014;2023-01-10T03:54:41;9.90;;;3.20;;
75766;SDS011;64378;55.596;13.014;2023-01-10T03:57:08;8.50;;;2.90;;
75766;SDS011;64378;55.596;13.014;2023-01-10T03:59:43;9.00;;;2.80;;
75766;SDS011;64378;55.596;13.014;2023-01-10T04:02:09;10.00;;;3.20;;
75766;SDS011;64378;55.596;13.014;2023-01-10T04:04:35;8.43;;;3.00;;
75766;SDS011;64378;55.596;13.014;2023-01-10T04:07:00;10.37;;;3.37;;
75766;SDS011;64378;55.596;13.014;2023-01-10T04:09:25;9.70;;;3.20;;
75766;SDS011;64378;55.596;13.014;2023-01-10T04:11:51;9.60;;;3.60;;
75766;SDS011;64378;55.596;13.014;2023-01-10T04:14:16;9.60;;;3.77;;
75766;SDS011;64378;55.596;13.014;2023-01-10T04:16:41;9.30;;;3.30;;
75766;SDS011;64378;55.596;13.014;2023-01-10T04:19:07;9.57;;;3.40;;
75766;SDS011;64378;55.596;13.014;2023-01-10T04:21:32;10.75;;;3.58;;
75766;SDS011;64378;55.596;13.014;2023-01-10T04:23:58;11.23;;;3.90;;
75766;SDS011;64378;55.596;13.014;2023-01-10T04:26:23;9.30;;;3.83;;
75766;SDS011;64378;55.596;13.014;2023-01-10T04:28:48;9.90;;;3.90;;
75766;SDS011;64378;55.596;13.014;2023-01-10T04:31:14;9.23;;;3.40;;
75766;SDS011;64378;55.596;13.014;2023-01-10T04:33:39;10.60;;;4.00;;
75766;SDS011;64378;55.596;13.014;2023-01-10T04:36:05;11.17;;;4.03;;
75766;SDS011;64378;55.596;13.014;2023-01-10T04:38:31;8.63;;;3.70;;
75766;SDS011;64378;55.596;13.014;2023-01-10T04:40:57;8.40;;;3.80;;
75766;SDS011;64378;55.596;13.014;2023-01-10T04:43:22;9.60;;;3.63;;
75766;SDS011;64378;55.596;13.014;2023-01-10T04:45:48;12.57;;;3.75;;
75766;SDS011;64378;55.596;13.014;2023-01-10T04:48:14;10.60;;;3.60;;
75766;SDS011;64378;55.596;13.014;2023-01-10T04:50:40;8.95;;;3.65;;
75766;SDS011;64378;55.596;13.014;2023-01-10T04:53:06;9.93;;;3.60;;
75766;SDS011;64378;55.596;13.014;2023-01-10T04:55:31;9.10;;;3.60;;
75766;SDS011;64378;55.596;13.014;2023-01-10T04:57:57;10.65;;;3.78;;
75766;SDS011;64378;55.596;13.014;2023-01-10T05:00:23;11.27;;;4.00;;
75766;SDS011;64378;55.596;13.014;2023-01-10T05:02:55;10.50;;;3.90;;
75766;SDS011;64378;55.596;13.014;2023-01-10T05:05:21;10.00;;;3.63;;
75766;SDS011;64378;55.596;13.014;2023-01-10T05:07:46;9.52;;;3.75;;
75766;SDS011;64378;55.596;13.014;2023-01-10T05:10:12;9.55;;;3.15;;
75766;SDS011;64378;55.596;13.014;2023-01-10T05:12:37;10.37;;;3.63;;
75766;SDS011;64378;55.596;13.014;2023-01-10T05:15:03;8.83;;;3.33;;
75766;SDS011;64378;55.596;13.014;2023-01-10T05:17:29;9.02;;;3.00;;
75766;SDS011;64378;55.596;13.014;2023-01-10T05:19:54;9.97;;;3.10;;
75766;SDS011;64378;55.596;13.014;2023-01-10T05:22:20;10.13;;;2.93;;
75766;SDS011;64378;55.596;13.014;2023-01-10T05:24:45;9.23;;;2.97;;
75766;SDS011;64378;55.596;13.014;2023-01-10T05:27:10;9.43;;;3.00;;
75766;SDS011;64378;55.596;13.014;2023-01-10T05:29:36;8.00;;;2.87;;
75766;SDS011;64378;55.596;13.014;2023-01-10T05:32:01;9.70;;;3.23;;
75766;SDS011;64378;55.596;13.014;2023-01-10T05:34:26;8.03;;;3.00;;
75766;SDS011;64378;55.596;13.014;2023-01-10T05:36:52;9.17;;;3.27;;
75766;SDS011;64378;55.596;13.014;2023-01-10T05:39:17;10.73;;;3.07;;
75766;SDS011;64378;55.596;13.014;2023-01-10T05:41:43;8.70;;;3.00;;
75766;SDS011;64378;55.596;13.014;2023-01-10T05:44:08;10.13;;;3.10;;
75766;SDS011;64378;55.596;13.014;2023-01-10T05:46:33;9.80;;;3.10;;
75766;SDS011;64378;55.596;13.014;2023-01-10T05:48:59;9.93;;;3.20;;
75766;SDS011;64378;55.596;13.014;2023-01-10T05:51:25;10.90;;;3.05;;
75766;SDS011;64378;55.596;13.014;2023-01-10T05:53:50;8.57;;;3.03;;
75766;SDS011;64378;55.596;13.014;2023-01-10T05:56:16;8.37;;;2.87;;
75766;SDS011;64378;55.596;13.014;2023-01-10T05:58:41;8.85;;;2.80;;
75766;SDS011;64378;55.596;13.014;2023-01-10T06:01:07;8.30;;;2.80;;
75766;SDS011;64378;55.596;13.014;2023-01-10T06:03:33;9.75;;;2.80;;
75766;SDS011;64378;55.596;13.014;2023-01-10T06:05:58;8.57;;;2.87;;
75766;SDS011;64378;55.596;13.014;2023-01-10T06:08:24;9.80;;;3.00;;
75766;SDS011;64378;55.596;13.014;2023-01-10T06:10:49;10.23;;;3.00;;
75766;SDS011;64378;55.596;13.014;2023-01-10T06:13:15;9.67;;;3.17;;
75766;SDS011;64378;55.596;13.014;2023-01-10T06:15:40;10.83;;;3.07;;
75766;SDS011;64378;55.596;13.014;2023-01-10T06:18:06;10.53;;;3.30;;
75766;SDS011;64378;55.596;13.014;2023-01-10T06:20:32;10.38;;;2.97;;
75766;SDS011;64378;55.596;13.014;2023-01-10T06:22:58;9.17;;;3.07;;
75766;SDS011;64378;55.596;13.014;2023-01-10T06:25:28;8.05;;;2.60;;
75766;SDS011;64378;55.596;13.014;2023-01-10T06:27:54;10.88;;;3.10;;
75766;SDS011;64378;55.596;13.014;2023-01-10T06:30:20;9.33;;;3.37;;
75766;SDS011;64378;55.596;13.014;2023-01-10T06:32:45;10.90;;;3.40;;
75766;SDS011;64378;55.596;13.014;2023-01-10T06:35:11;10.60;;;3.37;;
75766;SDS011;64378;55.596;13.014;2023-01-10T06:37:36;11.30;;;3.23;;
75766;SDS011;64378;55.596;13.014;2023-01-10T06:40:02;11.43;;;3.83;;
75766;SDS011;64378;55.596;13.014;2023-01-10T06:42:28;11.57;;;3.30;;
75766;SDS011;64378;55.596;13.014;2023-01-10T06:44:53;10.20;;;3.30;;
75766;SDS011;64378;55.596;13.014;2023-01-10T06:47:19;11.50;;;3.30;;
75766;SDS011;64378;55.596;13.014;2023-01-10T06:49:44;11.57;;;3.30;;
75766;SDS011;64378;55.596;13.014;2023-01-10T06:52:09;10.57;;;3.10;;
75766;SDS011;64378;55.596;13.014;2023-01-10T06:54:35;10.00;;;3.43;;
75766;SDS011;64378;55.596;13.014;2023-01-10T06:57:00;10.40;;;3.33;;
75766;SDS011;64378;55.596;13.014;2023-01-10T06:59:26;9.60;;;2.97;;
75766;SDS011;64378;55.596;13.014;2023-01-10T07:01:51;11.70;;;3.43;;
75766;SDS011;64378;55.596;13.014;2023-01-10T07:04:17;9.80;;;3.40;;
75766;SDS011;64378;55.596;13.014;2023-01-10T07:06:42;10.73;;;3.13;;
75766;SDS011;64378;55.596;13.014;2023-01-10T07:09:08;10.95;;;3.20;;
75766;SDS011;64378;55.596;13.014;2023-01-10T07:11:33;9.23;;;3.03;;
75766;SDS011;64378;55.596;13.014;2023-01-10T07:13:59;10.05;;;2.88;;
75766;SDS011;64378;55.596;13.014;2023-01-10T07:16:25;8.77;;;2.60;;
75766;SDS011;64378;55.596;13.014;2023-01-10T07:18:51;9.55;;;2.97;;
75766;SDS011;64378;55.596;13.014;2023-01-10T07:21:17;10.23;;;2.77;;
75766;SDS011;64378;55.596;13.014;2023-01-10T07:23:46;10.57;;;3.00;;
75766;SDS011;64378;55.596;13.014;2023-01-10T07:26:13;8.43;;;2.92;;
75766;SDS011;64378;55.596;13.014;2023-01-10T07:28:41;9.05;;;2.85;;
75766;SDS011;64378;55.596;13.014;2023-01-10T07:31:12;8.80;;;2.80;;
75766;SDS011;64378;55.596;13.014;2023-01-10T07:33:38;10.97;;;3.20;;
75766;SDS011;64378;55.596;13.014;2023-01-10T07:36:03;9.63;;;2.90;;
75766;SDS011;64378;55.596;13.014;2023-01-10T07:38:29;9.07;;;2.72;;
75766;SDS011;64378;55.596;13.014;2023-01-10T07:40:54;9.67;;;2.80;;
75766;SDS011;64378;55.596;13.014;2023-01-10T07:43:20;11.30;;;3.27;;
75766;SDS011;64378;55.596;13.014;2023-01-10T07:45:45;10.00;;;2.70;;
75766;SDS011;64378;55.596;13.014;2023-01-10T07:48:11;8.90;;;2.60;;
75766;SDS011;64378;55.596;13.014;2023-01-10T07:50:36;8.70;;;2.30;;
75766;SDS011;64378;55.596;13.014;2023-01-10T07:53:03;8.10;;;2.40;;
75766;SDS011;64378;55.596;13.014;2023-01-10T07:55:30;8.82;;;2.50;;
75766;SDS011;64378;55.596;13.014;2023-01-10T07:57:58;11.02;;;3.03;;
75766;SDS011;64378;55.596;13.014;2023-01-10T08:00:24;8.17;;;2.60;;
75766;SDS011;64378;55.596;13.014;2023-01-10T08:02:53;9.68;;;2.63;;
75766;SDS011;64378;55.596;13.014;2023-01-10T08:05:19;10.48;;;2.80;;
75766;SDS011;64378;55.596;13.014;2023-01-10T08:07:46;9.38;;;2.40;;
75766;SDS011;64378;55.596;13.014;2023-01-10T08:10:12;8.47;;;2.50;;
75766;SDS011;64378;55.596;13.014;2023-01-10T08:12:37;10.27;;;2.70;;
75766;SDS011;64378;55.596;13.014;2023-01-10T08:15:03;10.00;;;2.60;;
75766;SDS011;64378;55.596;13.014;2023-01-10T08:17:31;11.27;;;2.47;;
75766;SDS011;64378;55.596;13.014;2023-01-10T08:20:00;10.50;;;2.03;;
75766;SDS011;64378;55.596;13.014;2023-01-10T08:22:26;11.15;;;2.03;;
75766;SDS011;64378;55.596;13.014;2023-01-10T08:24:51;8.13;;;2.10;;
75766;SDS011;64378;55.596;13.014;2023-01-10T08:27:17;10.50;;;2.28;;
75766;SDS011;64378;55.596;13.014;2023-01-10T08:29:42;10.00;;;2.40;;
75766;SDS011;64378;55.596;13.014;2023-01-10T08:32:08;11.90;;;2.50;;
75766;SDS011;64378;55.596;13.014;2023-01-10T08:34:33;14.70;;;2.90;;
75766;SDS011;64378;55.596;13.014;2023-01-10T08:36:59;11.17;;;2.93;;
75766;SDS011;64378;55.596;13.014;2023-01-10T08:39:24;11.57;;;3.70;;
75766;SDS011;64378;55.596;13.014;2023-01-10T08:41:54;12.07;;;3.30;;
75766;SDS011;64378;55.596;13.014;2023-01-10T08:44:19;11.63;;;3.33;;
75766;SDS011;64378;55.596;13.014;2023-01-10T08:46:45;12.97;;;3.33;;
75766;SDS011;64378;55.596;13.014;2023-01-10T08:49:10;15.43;;;3.60;;
75766;SDS011;64378;55.596;13.014;2023-01-10T08:51:36;11.77;;;3.40;;
75766;SDS011;64378;55.596;13.014;2023-01-10T08:54:02;15.63;;;3.50;;
75766;SDS011;64378;55.596;13.014;2023-01-10T08:56:28;11.48;;;3.53;;
75766;SDS011;64378;55.596;13.014;2023-01-10T08:58:54;13.10;;;3.03;;
75766;SDS011;64378;55.596;13.014;2023-01-10T09:01:19;10.43;;;2.90;;
75766;SDS011;64378;55.596;13.014;2023-01-10T09:03:45;12.50;;;2.93;;
75766;SDS011;64378;55.596;13.014;2023-01-10T09:06:10;12.23;;;3.10;;
75766;SDS011;64378;55.596;13.014;2023-01-10T09:08:36;11.23;;;2.90;;
75766;SDS011;64378;55.596;13.014;2023-01-10T09:11:02;12.18;;;3.00;;
75766;SDS011;64378;55.596;13.014;2023-01-10T09:13:29;10.17;;;2.57;;
75766;SDS011;64378;55.596;13.014;2023-01-10T09:15:55;11.35;;;2.95;;
75766;SDS011;64378;55.596;13.014;2023-01-10T09:18:21;9.68;;;2.90;;
75766;SDS011;64378;55.596;13.014;2023-01-10T09:20:48;12.77;;;3.00;;
75766;SDS011;64378;55.596;13.014;2023-01-10T09:23:15;11.23;;;2.67;;
75766;SDS011;64378;55.596;13.014;2023-01-10T09:25:44;10.80;;;2.43;;
75766;SDS011;64378;55.596;13.014;2023-01-10T09:28:11;9.68;;;2.40;;
75766;SDS011;64378;55.596;13.014;2023-01-10T09:30:36;9.47;;;2.53;;
75766;SDS011;64378;55.596;13.014;2023-01-10T09:33:02;10.25;;;2.40;;
75766;SDS011;64378;55.596;13.014;2023-01-10T09:35:29;10.43;;;2.65;;
75766;SDS011;64378;55.596;13.014;2023-01-10T09:37:56;13.38;;;2.55;;
75766;SDS011;64378;55.596;13.014;2023-01-10T09:40:27;10.27;;;2.63;;
75766;SDS011;64378;55.596;13.014;2023-01-10T09:45:50;9.02;;;2.10;;
75766;SDS011;64378;55.596;13.014;2023-01-10T09:48:40;9.05;;;2.17;;
75766;SDS011;64378;55.596;13.014;2023-01-10T09:51:31;10.55;;;2.20;;
75766;SDS011;64378;55.596;13.014;2023-01-10T09:54:01;9.32;;;2.10;;
75766;SDS011;64378;55.596;13.014;2023-01-10T09:56:29;10.45;;;2.30;;
75766;SDS011;64378;55.596;13.014;2023-01-10T09:58:57;11.57;;;2.20;;
75766;SDS011;64378;55.596;13.014;2023-01-10T10:01:28;8.93;;;2.17;;
75766;SDS011;64378;55.596;13.014;2023-01-10T10:04:12;10.40;;;2.15;;
75766;SDS011;64378;55.596;13.014;2023-01-10T10:06:39;8.85;;;2.25;;
75766;SDS011;64378;55.596;13.014;2023-01-10T10:09:04;9.93;;;2.40;;
75766;SDS011;64378;55.596;13.014;2023-01-10T10:14:16;9.00;;;2.08;;
75766;SDS011;64378;55.596;13.014;2023-01-10T10:16:52;9.47;;;2.00;;
75766;SDS011;64378;55.596;13.014;2023-01-10T10:22:17;9.90;;;2.10;;
75766;SDS011;64378;55.596;13.014;2023-01-10T10:25:03;7.53;;;1.90;;
75766;SDS011;64378;55.596;13.014;2023-01-10T10:36:20;8.13;;;1.95;;
75766;SDS011;64378;55.596;13.014;2023-01-10T10:38:51;7.80;;;1.85;;
75766;SDS011;64378;55.596;13.014;2023-01-10T10:41:27;8.57;;;1.98;;
75766;SDS011;64378;55.596;13.014;2023-01-10T10:43:58;8.68;;;1.80;;
75766;SDS011;64378;55.596;13.014;2023-01-10T10:46:28;8.87;;;1.90;;
75766;SDS011;64378;55.596;13.014;2023-01-10T10:48:59;9.98;;;1.88;;
75766;SDS011;64378;55.596;13.014;2023-01-10T10:51:36;9.73;;;1.90;;
75766;SDS011;64378;55.596;13.014;2023-01-10T10:54:09;8.27;;;1.60;;
75766;SDS011;64378;55.596;13.014;2023-01-10T10:56:37;8.35;;;1.60;;
75766;SDS011;64378;55.596;13.014;2023-01-10T10:59:03;8.33;;;1.70;;
75766;SDS011;64378;55.596;13.014;2023-01-10T11:01:29;9.95;;;1.63;;
75766;SDS011;64378;55.596;13.014;2023-01-10T11:03:59;8.35;;;1.77;;
75766;SDS011;64378;55.596;13.014;2023-01-10T11:06:30;8.55;;;1.67;;
75766;SDS011;64378;55.596;13.014;2023-01-10T11:08:59;6.70;;;1.40;;
75766;SDS011;64378;55.596;13.014;2023-01-10T11:11:28;8.23;;;1.70;;
75766;SDS011;64378;55.596;13.014;2023-01-10T11:13:58;7.88;;;1.50;;
75766;SDS011;64378;55.596;13.014;2023-01-10T11:16:30;7.50;;;1.65;;
75766;SDS011;64378;55.596;13.014;2023-01-10T11:21:59;6.72;;;1.50;;
75766;SDS011;64378;55.596;13.014;2023-01-10T11:27:23;7.30;;;1.60;;
75766;SDS011;64378;55.596;13.014;2023-01-10T11:30:16;7.23;;;1.60;;
75766;SDS011;64378;55.596;13.014;2023-01-10T11:32:56;7.43;;;1.50;;
75766;SDS011;64378;55.596;13.014;2023-01-10T11:35:31;7.15;;;1.50;;
75766;SDS011;64378;55.596;13.014;2023-01-10T11:41:03;8.00;;;1.55;;
75766;SDS011;64378;55.596;13.014;2023-01-10T11:43:46;6.63;;;1.38;;
75766;SDS011;64378;55.596;13.014;2023-01-10T11:51:22;8.45;;;1.60;;
75766;SDS011;64378;55.596;13.014;2023-01-10T11:53:54;8.13;;;1.48;;
75766;SDS011;64378;55.596;13.014;2023-01-10T11:56:33;6.97;;;1.52;;
75766;SDS011;64378;55.596;13.014;2023-01-10T11:59:06;7.75;;;1.55;;
75766;SDS011;64378;55.596;13.014;2023-01-10T12:01:44;8.20;;;1.80;;
75766;SDS011;64378;55.596;13.014;2023-01-10T12:04:15;6.87;;;1.50;;
75766;SDS011;64378;55.596;13.014;2023-01-10T12:06:45;7.72;;;1.50;;
75766;SDS011;64378;55.596;13.014;2023-01-10T12:12:00;6.97;;;1.40;;
75766;SDS011;64378;55.596;13.014;2023-01-10T12:14:27;6.97;;;1.60;;
75766;SDS011;64378;55.596;13.014;2023-01-10T12:16:59;6.23;;;1.60;;
75766;SDS011;64378;55.596;13.014;2023-01-10T12:19:27;5.93;;;1.40;;
75766;SDS011;64378;55.596;13.014;2023-01-10T12:21:53;7.75;;;1.65;;
75766;SDS011;64378;55.596;13.014;2023-01-10T12:24:26;8.98;;;1.52;;
75766;SDS011;64378;55.596;13.014;2023-01-10T12:26:58;6.63;;;1.45;;
75766;SDS011;64378;55.596;13.014;2023-01-10T12:29:28;7.23;;;1.40;;
75766;SDS011;64378;55.596;13.014;2023-01-10T12:31:58;7.03;;;1.50;;
75766;SDS011;64378;55.596;13.014;2023-01-10T12:34:33;6.90;;;1.40;;
75766;SDS011;64378;55.596;13.014;2023-01-10T12:37:06;7.10;;;1.67;;
75766;SDS011;64378;55.596;13.014;2023-01-10T12:46:08;6.40;;;1.63;;
75766;SDS011;64378;55.596;13.014;2023-01-10T12:48:48;7.30;;;1.55;;
75766;SDS011;64378;55.596;13.014;2023-01-10T12:51:19;7.00;;;1.27;;
75766;SDS011;64378;55.596;13.014;2023-01-10T12:53:49;7.57;;;1.48;;
75766;SDS011;64378;55.596;13.014;2023-01-10T12:56:19;8.73;;;1.48;;
75766;SDS011;64378;55.596;13.014;2023-01-10T13:01:17;6.95;;;1.52;;
75766;SDS011;64378;55.596;13.014;2023-01-10T13:03:49;7.38;;;1.27;;
75766;SDS011;64378;55.596;13.014;2023-01-10T13:06:30;7.32;;;1.30;;
75766;SDS011;64378;55.596;13.014;2023-01-10T13:09:01;8.57;;;2.00;;
75766;SDS011;64378;55.596;13.014;2023-01-10T13:11:35;8.30;;;1.48;;
75766;SDS011;64378;55.596;13.014;2023-01-10T13:14:06;6.38;;;1.30;;
75766;SDS011;64378;55.596;13.014;2023-01-10T13:21:36;7.10;;;1.60;;
75766;SDS011;64378;55.596;13.014;2023-01-10T13:26:54;10.33;;;1.70;;
75766;SDS011;64378;55.596;13.014;2023-01-10T13:29:37;9.25;;;1.65;;
75766;SDS011;64378;55.596;13.014;2023-01-10T13:34:51;7.88;;;1.40;;
75766;SDS011;64378;55.596;13.014;2023-01-10T13:37:23;8.00;;;1.42;;
75766;SDS011;64378;55.596;13.014;2023-01-10T13:39:54;8.25;;;1.52;;
75766;SDS011;64378;55.596;13.014;2023-01-10T13:42:28;8.45;;;1.60;;
75766;SDS011;64378;55.596;13.014;2023-01-10T13:52:50;6.83;;;1.27;;
75766;SDS011;64378;55.596;13.014;2023-01-10T14:06:02;9.10;;;1.45;;
75766;SDS011;64378;55.596;13.014;2023-01-10T14:08:37;10.20;;;1.70;;
75766;SDS011;64378;55.596;13.014;2023-01-10T14:11:04;8.05;;;1.70;;
75766;SDS011;64378;55.596;13.014;2023-01-10T14:13:31;7.00;;;1.40;;
75766;SDS011;64378;55.596;13.014;2023-01-10T14:15:56;7.97;;;1.63;;
75766;SDS011;64378;55.596;13.014;2023-01-10T14:18:23;8.97;;;1.33;;
75766;SDS011;64378;55.596;13.014;2023-01-10T14:20:56;6.82;;;1.30;;
75766;SDS011;64378;55.596;13.014;2023-01-10T14:26:05;8.90;;;1.63;;
75766;SDS011;64378;55.596;13.014;2023-01-10T14:28:39;8.55;;;1.67;;
75766;SDS011;64378;55.596;13.014;2023-01-10T14:31:17;11.73;;;2.17;;
75766;SDS011;64378;55.596;13.014;2023-01-10T14:33:45;8.70;;;1.80;;
75766;SDS011;64378;55.596;13.014;2023-01-10T14:36:16;7.20;;;1.63;;
75766;SDS011;64378;55.596;13.014;2023-01-10T14:38:45;7.90;;;1.60;;
75766;SDS011;64378;55.596;13.014;2023-01-10T14:44:14;10.35;;;1.80;;
75766;SDS011;64378;55.596;13.014;2023-01-10T14:46:53;10.40;;;1.70;;
75766;SDS011;64378;55.596;13.014;2023-01-10T14:49:30;8.35;;;1.70;;
75766;SDS011;64378;55.596;13.014;2023-01-10T14:52:41;8.30;;;1.65;;
75766;SDS011;64378;55.596;13.014;2023-01-10T14:57:33;8.27;;;1.88;;
75766;SDS011;64378;55.596;13.014;2023-01-10T15:00:04;10.60;;;1.70;;
75766;SDS011;64378;55.596;13.014;2023-01-10T15:02:32;6.88;;;1.50;;
75766;SDS011;64378;55.596;13.014;2023-01-10T15:04:59;9.82;;;1.88;;
75766;SDS011;64378;55.596;13.014;2023-01-10T15:07:31;9.90;;;1.90;;
75766;SDS011;64378;55.596;13.014;2023-01-10T15:09:57;10.17;;;1.80;;
75766;SDS011;64378;55.596;13.014;2023-01-10T15:12:26;10.00;;;1.85;;
75766;SDS011;64378;55.596;13.014;2023-01-10T15:14:57;8.25;;;1.85;;
75766;SDS011;64378;55.596;13.014;2023-01-10T15:17:37;8.77;;;2.03;;
75766;SDS011;64378;55.596;13.014;2023-01-10T15:20:04;9.13;;;1.75;;
75766;SDS011;64378;55.596;13.014;2023-01-10T15:22:31;9.15;;;1.80;;
75766;SDS011;64378;55.596;13.014;2023-01-10T15:25:12;11.18;;;1.90;;
75766;SDS011;64378;55.596;13.014;2023-01-10T15:27:52;8.13;;;1.80;;
75766;SDS011;64378;55.596;13.014;2023-01-10T15:30:36;8.50;;;1.98;;
75766;SDS011;64378;55.596;13.014;2023-01-10T15:33:06;7.30;;;1.60;;
75766;SDS011;64378;55.596;13.014;2023-01-10T15:35:37;8.75;;;1.70;;
75766;SDS011;64378;55.596;13.014;2023-01-10T15:38:07;8.48;;;1.52;;
75766;SDS011;64378;55.596;13.014;2023-01-10T15:40:38;8.48;;;1.58;;
75766;SDS011;64378;55.596;13.014;2023-01-10T15:43:22;9.07;;;1.70;;
75766;SDS011;64378;55.596;13.014;2023-01-10T15:45:50;8.63;;;1.77;;
75766;SDS011;64378;55.596;13.014;2023-01-10T15:48:24;10.07;;;1.95;;
75766;SDS011;64378;55.596;13.014;2023-01-10T15:50:54;10.02;;;2.00;;
75766;SDS011;64378;55.596;13.014;2023-01-10T15:53:20;12.80;;;2.45;;
75766;SDS011;64378;55.596;13.014;2023-01-10T15:56:55;17.00;;;3.55;;
75766;SDS011;64378;55.596;13.014;2023-01-10T15:59:28;16.23;;;2.78;;
75766;SDS011;64378;55.596;13.014;2023-01-10T16:04:47;19.10;;;3.78;;
75766;SDS011;64378;55.596;13.014;2023-01-10T16:07:21;15.30;;;3.00;;
75766;SDS011;64378;55.596;13.014;2023-01-10T16:09:49;14.27;;;2.83;;
75766;SDS011;64378;55.596;13.014;2023-01-10T16:15:24;16.15;;;3.10;;
75766;SDS011;64378;55.596;13.014;2023-01-10T16:17:54;16.95;;;3.22;;
75766;SDS011;64378;55.596;13.014;2023-01-10T16:20:21;15.45;;;3.17;;
75766;SDS011;64378;55.596;13.014;2023-01-10T16:22:50;13.80;;;3.28;;
75766;SDS011;64378;55.596;13.014;2023-01-10T16:25:17;12.30;;;2.60;;
75766;SDS011;64378;55.596;13.014;2023-01-10T16:27:45;14.43;;;3.00;;
75766;SDS011;64378;55.596;13.014;2023-01-10T16:30:21;16.27;;;2.78;;
75766;SDS011;64378;55.596;13.014;2023-01-10T16:32:48;13.52;;;2.85;;
75766;SDS011;64378;55.596;13.014;2023-01-10T16:35:14;13.43;;;2.80;;
75766;SDS011;64378;55.596;13.014;2023-01-10T16:37:41;12.13;;;2.87;;
75766;SDS011;64378;55.596;13.014;2023-01-10T16:40:24;12.20;;;2.50;;
75766;SDS011;64378;55.596;13.014;2023-01-10T16:42:52;12.93;;;2.60;;
75766;SDS011;64378;55.596;13.014;2023-01-10T16:45:36;16.05;;;2.50;;
75766;SDS011;64378;55.596;13.014;2023-01-10T16:48:02;12.07;;;2.60;;
75766;SDS011;64378;55.596;13.014;2023-01-10T16:50:28;10.60;;;2.58;;
75766;SDS011;64378;55.596;13.014;2023-01-10T16:52:54;12.97;;;2.67;;